Biggsville, Illinois
Current Conditions -  °F | °C
As of 2:53 PM on Saturday 20 Dec 2014 (Local Time) from KBRL Reporting Station
Haze Haze  
Wind Chill: 35°   Ceiling: 900
Heat Index: 35°   Visibility: 2.5mi
Dew Point: 33°   Wind: 3mph
Humidity: 92%   Direction: 160°SSE
Pressure: 30.18"   Gusts: NA
Location:  40.85°N, 90.86°W
Report Text: KBRL 202053Z AUTO 16003KT 2 1/2SM BR OVC009 02/01 A3018 RMK AO2 SNE47 SLP227 P0000 60000 T00170006 55008
Loading
Personal Weather Stations






























Interactive Weather Map New forecast layout! Learn more

10-Day Weather Forecast

Advertisements
Track Severe Weather on mobile